Overview Statistics Trail Chart Weather Telemetry Raw packets
 

This is the latest recevied weather packets stored in our database for station/object KD7AWQ. If no packets are shown the sender has not sent any weather packets the latest 10 day(s).

<< 52 53 54 55 56 57 58 >>
Time Temp. Humidity Pressure Rain* Wind** Luminosity Snow
1788066879 25° C 44% 1189 hPa 0 mm - 0 W/m² -
1788066578 25° C 48% 1189.1 hPa 0 mm - 0 W/m² -
1788066274 25° C 47% 1188.9 hPa 0 mm - 0 W/m² -
1788065972 25.56° C 45% 1188.6 hPa 0 mm - 0 W/m² -
1788065667 25° C 44% 1188.4 hPa 0 mm - 0 W/m² -
1788065366 25° C 47% 1188.8 hPa 0 mm - 0 W/m² -
1788065062 23.89° C 52% 1188.8 hPa 0 mm - 0 W/m² -
1788064757 24.44° C 52% 1188.3 hPa 0 mm - 0 W/m² -
1788064451 24.44° C 50% 1188.2 hPa 0 mm - 0 W/m² -
1788064150 24.44° C 51% 1188.1 hPa 0 mm - 0 W/m² -
1788063844 25° C 50% 1188 hPa 0 mm - 0 W/m² -
1788063543 25.56° C 48% 1187.9 hPa 0 mm - 0 W/m² -
1788063243 28.33° C 38% 1187.7 hPa 0 mm - 0 W/m² -
1788062938 27.78° C 35% 1187.8 hPa 0 mm - 0 W/m² -
1788062634 28.33° C 36% 1187.3 hPa 0 mm - 0 W/m² -
1788062333 27.78° C 35% 1187.3 hPa 0 mm - 0 W/m² -
1788062031 27.22° C 37% 1187.2 hPa 0 mm - 0 W/m² -
1788061727 27.22° C 38% 1187.4 hPa 0 mm - 0 W/m² -
1788061422 27.78° C 39% 1187.2 hPa 0 mm - 0 W/m² -
1788061118 28.89° C 36% 1187.3 hPa 0 mm - 0 W/m² -
1788060817 29.44° C 33% 1187.2 hPa 0 mm - 0 W/m² -
1788060513 30° C 32% 1186.9 hPa 0 mm - 0 W/m² -
1788060207 30.56° C 30% 1186.5 hPa 0 mm - 0 W/m² -
1788059902 30.56° C 29% 1186.5 hPa 0 mm - 0 W/m² -
1788059598 30.56° C 28% 1186.3 hPa 0 mm - 0 W/m² -

* Rain latest hour (hover to see other rain measurements)
** Current wind speed in m/s (hover to see current wind gust speed)